Waldron Airstrip

90WA · 不列颠哥伦比亚, 美国

罗盘
风向 的 风向 170° Waldron Airstrip 14/32
风向 到 风: 8 kt, 阵阵 15 kt, 3 beaufort

7 kt

4 kt
改变
0 ft 1.000 2.000 3.000 4.000 5.000
Cloud Cloud Cloud Cloud Cloud Cloud
BKN 1.700
Cloud Cloud Cloud Cloud Cloud Cloud Cloud Cloud
OVC 3.100
METAR KORS 071455Z AUTO 17008G15KT 4SM -RA BR BKN017 OVC031 08/08 A3004 RMK AO2 P0003

METAR Waldron Airstrip - 90WA/WDN

Waldron Airstrip是,美国中的小机场。 该机场有一条跑道: 14/32. 该领域的国际民航组织标志是90WA 它的国际航空运输协会代码是WDN.

这份报告是针对2023年2月7日 06:55, 当地时间在Orcas Island Airport进行的。

机场观察

风向为170°,速度为8 kt。 已测得15 kt的阵风。

可见度为4 mi。

有碎云在1.700 ft的高度 和 乌云密布在3.100 ft的高度。 破损或更高的上限为1.700 ft。

当前天气为光 雨, 薄雾。 温度为8 °C,阵风为4 °C。 露点为8 °C,相对湿度为100%。 海平面上的气压为30,04 inHg (QNH)。

白天

今天,太阳从07:32升起,在17:19降落。 这适用于Waldron Airstrip,世界夏令时可能有所不同。 当地时间与世界标准时间之间的时差为-8 小时。 当前,没有夏令时有效。

公司介绍

我们没有关于这个机场的公司信息。

体会

到Vliegles.nl去找飞行课程,跳伞和其他飞行体验。 浏览页面,了解Waldron Airstrip附近所有可用的活动。 你也可以使用搜索功能来寻找你所在地附近的特定飞行课程、跳伞或其他飞行体验。

跑道

Id 标题 侧风 逆风 侧风 %
14/32 140°-320° 4-8 kt 7-13 kt 50 %

逆风成分最大的方向会被突出显示,并用于横风计算。 这并不一定意味着这个方向在使用。

乌云

1.700 ft BKN 碎云
3.100 ft OVC 乌云密布

温度 & 天气

天气 光 雨
薄雾
温度 8 °C
露点 8 °C
相对湿度 100%
风寒 4 °C
Kp-index 1 (0-9)

评论

AO2自动气象站,可确定降水类型
P0003自上次观测以来,降雨量的水当量为0,03 inch (0,0 mm)。

白天

日出
07:32 (12m)
中午
12:25
日落
17:19

小工具

你想在你的网站上有一个关于Waldron Airstrip的当前航空天气(METAR)的小部件吗?

显示HTML代码

我们和第三方通过cookies跟踪您在我们网站上的互联网行为。如果你继续,我们认为你同意我们的饼干政策